sensor_id;sensor_type;location;lat;lon;timestamp;temperature;humidity
4759;DHT22;2393;50.560;12.636;2023-02-03T00:00:08;2.10;99.90
4759;DHT22;2393;50.560;12.636;2023-02-03T00:02:39;2.10;99.90
4759;DHT22;2393;50.560;12.636;2023-02-03T00:05:08;2.10;99.90
4759;DHT22;2393;50.560;12.636;2023-02-03T00:07:37;2.10;99.90
4759;DHT22;2393;50.560;12.636;2023-02-03T00:10:06;2.10;99.90
4759;DHT22;2393;50.560;12.636;2023-02-03T00:12:35;2.10;99.90
4759;DHT22;2393;50.560;12.636;2023-02-03T00:15:06;2.10;99.90
4759;DHT22;2393;50.560;12.636;2023-02-03T00:17:34;2.10;99.90
4759;DHT22;2393;50.560;12.636;2023-02-03T00:20:03;2.10;99.90
4759;DHT22;2393;50.560;12.636;2023-02-03T00:22:32;2.10;99.90
4759;DHT22;2393;50.560;12.636;2023-02-03T00:25:00;2.10;99.90
4759;DHT22;2393;50.560;12.636;2023-02-03T00:27:29;2.10;99.90
4759;DHT22;2393;50.560;12.636;2023-02-03T00:29:57;2.10;99.90
4759;DHT22;2393;50.560;12.636;2023-02-03T00:32:27;2.10;99.90
4759;DHT22;2393;50.560;12.636;2023-02-03T00:34:56;2.20;99.90
4759;DHT22;2393;50.560;12.636;2023-02-03T00:37:24;2.20;99.90
4759;DHT22;2393;50.560;12.636;2023-02-03T00:39:52;2.20;99.90
4759;DHT22;2393;50.560;12.636;2023-02-03T00:42:20;2.20;99.90
4759;DHT22;2393;50.560;12.636;2023-02-03T00:44:48;2.20;99.90
4759;DHT22;2393;50.560;12.636;2023-02-03T00:47:16;2.30;99.90
4759;DHT22;2393;50.560;12.636;2023-02-03T00:49:45;2.30;99.90
4759;DHT22;2393;50.560;12.636;2023-02-03T00:52:13;2.30;99.90
4759;DHT22;2393;50.560;12.636;2023-02-03T00:54:41;2.30;99.90
4759;DHT22;2393;50.560;12.636;2023-02-03T00:57:09;2.40;99.90
4759;DHT22;2393;50.560;12.636;2023-02-03T00:59:38;2.40;99.90
4759;DHT22;2393;50.560;12.636;2023-02-03T01:02:06;2.40;99.90
4759;DHT22;2393;50.560;12.636;2023-02-03T01:04:34;2.40;99.90
4759;DHT22;2393;50.560;12.636;2023-02-03T01:07:04;2.50;99.90
4759;DHT22;2393;50.560;12.636;2023-02-03T01:09:32;2.50;99.90
4759;DHT22;2393;50.560;12.636;2023-02-03T01:12:01;2.50;99.90
4759;DHT22;2393;50.560;12.636;2023-02-03T01:14:29;2.60;99.90
4759;DHT22;2393;50.560;12.636;2023-02-03T01:16:57;2.60;99.90
4759;DHT22;2393;50.560;12.636;2023-02-03T01:19:25;2.70;99.90
4759;DHT22;2393;50.560;12.636;2023-02-03T01:21:53;2.70;99.90
4759;DHT22;2393;50.560;12.636;2023-02-03T01:24:23;2.70;99.90
4759;DHT22;2393;50.560;12.636;2023-02-03T01:26:51;2.80;99.90
4759;DHT22;2393;50.560;12.636;2023-02-03T01:29:19;2.80;99.90
4759;DHT22;2393;50.560;12.636;2023-02-03T01:31:48;2.80;99.90
4759;DHT22;2393;50.560;12.636;2023-02-03T01:34:16;2.90;99.90
4759;DHT22;2393;50.560;12.636;2023-02-03T01:36:44;2.90;99.90
4759;DHT22;2393;50.560;12.636;2023-02-03T01:39:13;2.90;99.90
4759;DHT22;2393;50.560;12.636;2023-02-03T01:41:42;3.00;99.90
4759;DHT22;2393;50.560;12.636;2023-02-03T01:44:37;3.00;99.90
4759;DHT22;2393;50.560;12.636;2023-02-03T01:47:15;3.00;99.90
4759;DHT22;2393;50.560;12.636;2023-02-03T01:49:46;3.10;99.90
4759;DHT22;2393;50.560;12.636;2023-02-03T01:52:16;3.10;99.90
4759;DHT22;2393;50.560;12.636;2023-02-03T01:54:46;3.20;99.90
4759;DHT22;2393;50.560;12.636;2023-02-03T01:57:20;3.20;99.90
4759;DHT22;2393;50.560;12.636;2023-02-03T01:59:50;3.30;99.90
4759;DHT22;2393;50.560;12.636;2023-02-03T02:02:19;3.30;99.90
4759;DHT22;2393;50.560;12.636;2023-02-03T02:04:54;3.30;99.90
4759;DHT22;2393;50.560;12.636;2023-02-03T02:07:23;3.40;99.90
4759;DHT22;2393;50.560;12.636;2023-02-03T02:09:52;3.40;99.90
4759;DHT22;2393;50.560;12.636;2023-02-03T02:12:21;3.40;99.90
4759;DHT22;2393;50.560;12.636;2023-02-03T02:14:49;3.40;99.90
4759;DHT22;2393;50.560;12.636;2023-02-03T02:17:33;3.40;99.90
4759;DHT22;2393;50.560;12.636;2023-02-03T02:20:24;3.40;99.90
4759;DHT22;2393;50.560;12.636;2023-02-03T02:32:08;3.50;99.90
4759;DHT22;2393;50.560;12.636;2023-02-03T02:34:45;3.50;99.90
4759;DHT22;2393;50.560;12.636;2023-02-03T02:37:23;3.50;99.90
4759;DHT22;2393;50.560;12.636;2023-02-03T02:39:58;3.50;99.90
4759;DHT22;2393;50.560;12.636;2023-02-03T02:42:34;3.60;99.90
4759;DHT22;2393;50.560;12.636;2023-02-03T02:45:08;3.60;99.90
4759;DHT22;2393;50.560;12.636;2023-02-03T02:47:39;3.60;99.90
4759;DHT22;2393;50.560;12.636;2023-02-03T02:50:10;3.60;99.90
4759;DHT22;2393;50.560;12.636;2023-02-03T02:52:43;3.70;99.90
4759;DHT22;2393;50.560;12.636;2023-02-03T02:55:15;3.70;99.90
4759;DHT22;2393;50.560;12.636;2023-02-03T02:57:45;3.70;99.90
4759;DHT22;2393;50.560;12.636;2023-02-03T03:00:17;3.80;99.90
4759;DHT22;2393;50.560;12.636;2023-02-03T03:02:46;3.70;99.90
4759;DHT22;2393;50.560;12.636;2023-02-03T03:05:15;3.70;99.90
4759;DHT22;2393;50.560;12.636;2023-02-03T03:07:52;3.70;99.90
4759;DHT22;2393;50.560;12.636;2023-02-03T03:10:24;3.70;99.90
4759;DHT22;2393;50.560;12.636;2023-02-03T03:12:58;3.70;99.90
4759;DHT22;2393;50.560;12.636;2023-02-03T03:15:29;3.60;99.90
4759;DHT22;2393;50.560;12.636;2023-02-03T03:18:03;3.60;99.90
4759;DHT22;2393;50.560;12.636;2023-02-03T03:20:35;3.60;99.90
4759;DHT22;2393;50.560;12.636;2023-02-03T03:23:06;3.70;99.90
4759;DHT22;2393;50.560;12.636;2023-02-03T03:25:38;3.60;99.90
4759;DHT22;2393;50.560;12.636;2023-02-03T03:28:11;3.60;99.90
4759;DHT22;2393;50.560;12.636;2023-02-03T03:30:40;3.70;99.90
4759;DHT22;2393;50.560;12.636;2023-02-03T03:33:09;3.70;99.90
4759;DHT22;2393;50.560;12.636;2023-02-03T03:35:41;3.70;99.90
4759;DHT22;2393;50.560;12.636;2023-02-03T03:38:18;3.70;99.90
4759;DHT22;2393;50.560;12.636;2023-02-03T03:40:51;3.70;99.90
4759;DHT22;2393;50.560;12.636;2023-02-03T03:43:22;3.70;99.90
4759;DHT22;2393;50.560;12.636;2023-02-03T03:45:54;3.70;99.90
4759;DHT22;2393;50.560;12.636;2023-02-03T03:48:28;3.80;99.90
4759;DHT22;2393;50.560;12.636;2023-02-03T03:51:01;3.80;99.90
4759;DHT22;2393;50.560;12.636;2023-02-03T03:53:33;3.80;99.90
4759;DHT22;2393;50.560;12.636;2023-02-03T03:56:05;3.80;99.90
4759;DHT22;2393;50.560;12.636;2023-02-03T03:58:37;3.80;99.90
4759;DHT22;2393;50.560;12.636;2023-02-03T04:01:07;3.80;99.90
4759;DHT22;2393;50.560;12.636;2023-02-03T04:03:38;3.80;99.90
4759;DHT22;2393;50.560;12.636;2023-02-03T04:06:07;3.80;99.90
4759;DHT22;2393;50.560;12.636;2023-02-03T04:08:35;3.90;99.90
4759;DHT22;2393;50.560;12.636;2023-02-03T04:11:05;3.90;99.90
4759;DHT22;2393;50.560;12.636;2023-02-03T04:13:33;3.90;99.90
4759;DHT22;2393;50.560;12.636;2023-02-03T04:16:01;3.90;99.90
4759;DHT22;2393;50.560;12.636;2023-02-03T04:18:29;3.90;99.90
4759;DHT22;2393;50.560;12.636;2023-02-03T04:20:58;3.90;99.90
4759;DHT22;2393;50.560;12.636;2023-02-03T04:23:26;3.90;99.90
4759;DHT22;2393;50.560;12.636;2023-02-03T04:25:56;3.90;99.90
4759;DHT22;2393;50.560;12.636;2023-02-03T04:28:27;4.00;99.90
4759;DHT22;2393;50.560;12.636;2023-02-03T04:30:58;4.00;99.90
4759;DHT22;2393;50.560;12.636;2023-02-03T04:33:26;4.00;99.90
4759;DHT22;2393;50.560;12.636;2023-02-03T04:35:54;3.90;99.90
4759;DHT22;2393;50.560;12.636;2023-02-03T04:38:24;4.00;99.90
4759;DHT22;2393;50.560;12.636;2023-02-03T04:40:51;3.90;99.90
4759;DHT22;2393;50.560;12.636;2023-02-03T04:43:19;3.90;99.90
4759;DHT22;2393;50.560;12.636;2023-02-03T04:45:47;3.90;99.90
4759;DHT22;2393;50.560;12.636;2023-02-03T04:48:15;4.00;99.90
4759;DHT22;2393;50.560;12.636;2023-02-03T04:50:43;4.00;99.90
4759;DHT22;2393;50.560;12.636;2023-02-03T04:53:11;4.00;99.90
4759;DHT22;2393;50.560;12.636;2023-02-03T04:55:45;4.00;99.90
4759;DHT22;2393;50.560;12.636;2023-02-03T04:58:13;4.00;99.90
4759;DHT22;2393;50.560;12.636;2023-02-03T05:00:41;4.00;99.90
4759;DHT22;2393;50.560;12.636;2023-02-03T05:03:09;4.00;99.90
4759;DHT22;2393;50.560;12.636;2023-02-03T05:05:37;4.10;99.90
4759;DHT22;2393;50.560;12.636;2023-02-03T05:08:05;4.10;99.90
4759;DHT22;2393;50.560;12.636;2023-02-03T05:10:33;4.10;99.90
4759;DHT22;2393;50.560;12.636;2023-02-03T05:13:02;4.10;99.90
4759;DHT22;2393;50.560;12.636;2023-02-03T05:15:30;4.10;99.90
4759;DHT22;2393;50.560;12.636;2023-02-03T05:17:58;4.10;99.90
4759;DHT22;2393;50.560;12.636;2023-02-03T05:20:26;4.10;99.90
4759;DHT22;2393;50.560;12.636;2023-02-03T05:22:55;4.10;99.90
4759;DHT22;2393;50.560;12.636;2023-02-03T05:25:24;4.10;99.90
4759;DHT22;2393;50.560;12.636;2023-02-03T05:27:52;4.10;99.90
4759;DHT22;2393;50.560;12.636;2023-02-03T05:30:21;4.10;99.90
4759;DHT22;2393;50.560;12.636;2023-02-03T05:32:49;4.10;99.90
4759;DHT22;2393;50.560;12.636;2023-02-03T05:35:17;4.10;99.90
4759;DHT22;2393;50.560;12.636;2023-02-03T05:37:45;4.00;99.90
4759;DHT22;2393;50.560;12.636;2023-02-03T05:40:14;4.10;99.90
4759;DHT22;2393;50.560;12.636;2023-02-03T05:43:00;4.10;99.90
4759;DHT22;2393;50.560;12.636;2023-02-03T05:45:30;4.10;99.90
4759;DHT22;2393;50.560;12.636;2023-02-03T05:47:58;4.10;99.90
4759;DHT22;2393;50.560;12.636;2023-02-03T05:50:28;4.10;99.90
4759;DHT22;2393;50.560;12.636;2023-02-03T05:53:06;4.10;99.90
4759;DHT22;2393;50.560;12.636;2023-02-03T05:55:35;4.20;99.90
4759;DHT22;2393;50.560;12.636;2023-02-03T05:58:03;4.20;99.90
4759;DHT22;2393;50.560;12.636;2023-02-03T06:00:33;4.20;99.90
4759;DHT22;2393;50.560;12.636;2023-02-03T06:03:01;4.20;99.90
4759;DHT22;2393;50.560;12.636;2023-02-03T06:05:31;4.20;99.90
4759;DHT22;2393;50.560;12.636;2023-02-03T06:08:00;4.20;99.90
4759;DHT22;2393;50.560;12.636;2023-02-03T06:10:28;4.30;99.90
4759;DHT22;2393;50.560;12.636;2023-02-03T06:12:56;4.30;99.90
4759;DHT22;2393;50.560;12.636;2023-02-03T06:15:24;4.20;99.90
4759;DHT22;2393;50.560;12.636;2023-02-03T06:17:54;4.20;99.90
4759;DHT22;2393;50.560;12.636;2023-02-03T06:20:22;4.20;99.90
4759;DHT22;2393;50.560;12.636;2023-02-03T06:22:50;4.20;99.90
4759;DHT22;2393;50.560;12.636;2023-02-03T06:25:19;4.30;99.90
4759;DHT22;2393;50.560;12.636;2023-02-03T06:27:47;4.30;99.90
4759;DHT22;2393;50.560;12.636;2023-02-03T06:30:15;4.30;99.90
4759;DHT22;2393;50.560;12.636;2023-02-03T06:32:43;4.30;99.90
4759;DHT22;2393;50.560;12.636;2023-02-03T06:35:12;4.30;99.90
4759;DHT22;2393;50.560;12.636;2023-02-03T06:37:40;4.30;99.90
4759;DHT22;2393;50.560;12.636;2023-02-03T06:40:10;4.30;99.90
4759;DHT22;2393;50.560;12.636;2023-02-03T06:42:38;4.30;99.90
4759;DHT22;2393;50.560;12.636;2023-02-03T06:45:07;4.30;99.90
4759;DHT22;2393;50.560;12.636;2023-02-03T06:47:38;4.30;99.90
4759;DHT22;2393;50.560;12.636;2023-02-03T06:50:07;4.30;99.90
4759;DHT22;2393;50.560;12.636;2023-02-03T06:52:37;4.30;99.90
4759;DHT22;2393;50.560;12.636;2023-02-03T06:55:06;4.30;99.90
4759;DHT22;2393;50.560;12.636;2023-02-03T06:57:34;4.30;99.90
4759;DHT22;2393;50.560;12.636;2023-02-03T07:00:02;4.30;99.90
4759;DHT22;2393;50.560;12.636;2023-02-03T07:02:30;4.30;99.90
4759;DHT22;2393;50.560;12.636;2023-02-03T07:04:58;4.40;99.90
4759;DHT22;2393;50.560;12.636;2023-02-03T07:07:26;4.40;99.90
4759;DHT22;2393;50.560;12.636;2023-02-03T07:09:57;4.30;99.90
4759;DHT22;2393;50.560;12.636;2023-02-03T07:12:25;4.40;99.90
4759;DHT22;2393;50.560;12.636;2023-02-03T07:14:53;4.40;99.90
4759;DHT22;2393;50.560;12.636;2023-02-03T07:17:21;4.40;99.90
4759;DHT22;2393;50.560;12.636;2023-02-03T07:19:48;4.40;99.90
4759;DHT22;2393;50.560;12.636;2023-02-03T07:22:16;4.40;99.90
4759;DHT22;2393;50.560;12.636;2023-02-03T07:24:44;4.40;99.90
4759;DHT22;2393;50.560;12.636;2023-02-03T07:27:14;4.40;99.90
4759;DHT22;2393;50.560;12.636;2023-02-03T07:29:42;4.50;99.90
4759;DHT22;2393;50.560;12.636;2023-02-03T07:32:10;4.50;99.90
4759;DHT22;2393;50.560;12.636;2023-02-03T07:34:38;4.50;99.90
4759;DHT22;2393;50.560;12.636;2023-02-03T07:37:06;4.50;99.90
4759;DHT22;2393;50.560;12.636;2023-02-03T07:39:34;4.50;99.90
4759;DHT22;2393;50.560;12.636;2023-02-03T07:42:02;4.50;99.90
4759;DHT22;2393;50.560;12.636;2023-02-03T07:44:36;4.60;99.90
4759;DHT22;2393;50.560;12.636;2023-02-03T07:47:04;4.60;99.90
4759;DHT22;2393;50.560;12.636;2023-02-03T07:49:32;4.60;99.90
4759;DHT22;2393;50.560;12.636;2023-02-03T07:52:01;4.60;99.90
4759;DHT22;2393;50.560;12.636;2023-02-03T07:54:28;4.60;99.90
4759;DHT22;2393;50.560;12.636;2023-02-03T07:56:56;4.60;99.90
4759;DHT22;2393;50.560;12.636;2023-02-03T07:59:24;4.60;99.90
4759;DHT22;2393;50.560;12.636;2023-02-03T08:01:54;4.60;99.90
4759;DHT22;2393;50.560;12.636;2023-02-03T08:04:22;4.60;99.90
4759;DHT22;2393;50.560;12.636;2023-02-03T08:06:50;4.70;99.90
4759;DHT22;2393;50.560;12.636;2023-02-03T08:09:18;4.60;99.90
4759;DHT22;2393;50.560;12.636;2023-02-03T08:11:46;4.60;99.90
4759;DHT22;2393;50.560;12.636;2023-02-03T08:14:14;4.60;99.90
4759;DHT22;2393;50.560;12.636;2023-02-03T08:16:42;4.70;99.90
4759;DHT22;2393;50.560;12.636;2023-02-03T08:19:12;4.70;99.90
4759;DHT22;2393;50.560;12.636;2023-02-03T08:21:40;4.70;99.90
4759;DHT22;2393;50.560;12.636;2023-02-03T08:24:08;4.70;99.90
4759;DHT22;2393;50.560;12.636;2023-02-03T08:26:36;4.70;99.90
4759;DHT22;2393;50.560;12.636;2023-02-03T08:29:04;4.70;99.90
4759;DHT22;2393;50.560;12.636;2023-02-03T08:31:33;4.70;99.90
4759;DHT22;2393;50.560;12.636;2023-02-03T08:34:01;4.70;99.90
4759;DHT22;2393;50.560;12.636;2023-02-03T08:36:30;4.70;99.90
4759;DHT22;2393;50.560;12.636;2023-02-03T08:38:58;4.70;99.90
4759;DHT22;2393;50.560;12.636;2023-02-03T08:41:26;4.70;99.90
4759;DHT22;2393;50.560;12.636;2023-02-03T08:43:54;4.80;99.90
4759;DHT22;2393;50.560;12.636;2023-02-03T08:46:22;4.70;99.90
4759;DHT22;2393;50.560;12.636;2023-02-03T08:48:50;4.70;99.90
4759;DHT22;2393;50.560;12.636;2023-02-03T08:51:19;4.80;99.90
4759;DHT22;2393;50.560;12.636;2023-02-03T08:53:48;4.80;99.90
4759;DHT22;2393;50.560;12.636;2023-02-03T08:56:16;4.80;99.90
4759;DHT22;2393;50.560;12.636;2023-02-03T08:58:44;4.80;99.90
4759;DHT22;2393;50.560;12.636;2023-02-03T09:01:14;4.80;99.90
4759;DHT22;2393;50.560;12.636;2023-02-03T09:03:42;4.80;99.90
4759;DHT22;2393;50.560;12.636;2023-02-03T09:06:10;4.80;99.90
4759;DHT22;2393;50.560;12.636;2023-02-03T09:08:38;4.80;99.90
4759;DHT22;2393;50.560;12.636;2023-02-03T09:11:09;4.80;99.90
4759;DHT22;2393;50.560;12.636;2023-02-03T09:13:37;4.80;99.90
4759;DHT22;2393;50.560;12.636;2023-02-03T09:16:06;4.80;99.90
4759;DHT22;2393;50.560;12.636;2023-02-03T09:18:34;4.80;99.90
4759;DHT22;2393;50.560;12.636;2023-02-03T09:21:03;4.80;99.90
4759;DHT22;2393;50.560;12.636;2023-02-03T09:23:31;4.80;99.90
4759;DHT22;2393;50.560;12.636;2023-02-03T09:26:01;4.80;99.90
4759;DHT22;2393;50.560;12.636;2023-02-03T09:28:30;4.80;99.90
4759;DHT22;2393;50.560;12.636;2023-02-03T09:30:59;4.80;99.90
4759;DHT22;2393;50.560;12.636;2023-02-03T09:33:27;4.80;99.90
4759;DHT22;2393;50.560;12.636;2023-02-03T09:35:56;4.80;99.90
4759;DHT22;2393;50.560;12.636;2023-02-03T09:38:25;4.80;99.90
4759;DHT22;2393;50.560;12.636;2023-02-03T09:40:55;4.80;99.90
4759;DHT22;2393;50.560;12.636;2023-02-03T09:43:42;4.80;99.90
4759;DHT22;2393;50.560;12.636;2023-02-03T09:46:16;4.80;99.90
4759;DHT22;2393;50.560;12.636;2023-02-03T09:48:48;4.80;99.90
4759;DHT22;2393;50.560;12.636;2023-02-03T09:51:20;4.90;99.90
4759;DHT22;2393;50.560;12.636;2023-02-03T09:53:53;4.90;99.90
4759;DHT22;2393;50.560;12.636;2023-02-03T09:56:26;4.90;99.90
4759;DHT22;2393;50.560;12.636;2023-02-03T09:58:56;4.90;99.90
4759;DHT22;2393;50.560;12.636;2023-02-03T10:01:27;4.90;99.90
4759;DHT22;2393;50.560;12.636;2023-02-03T10:04:03;4.90;99.90
4759;DHT22;2393;50.560;12.636;2023-02-03T10:06:35;5.00;99.90
4759;DHT22;2393;50.560;12.636;2023-02-03T10:09:17;5.00;99.90
4759;DHT22;2393;50.560;12.636;2023-02-03T10:12:06;4.90;99.90
4759;DHT22;2393;50.560;12.636;2023-02-03T10:14:48;5.00;99.90
4759;DHT22;2393;50.560;12.636;2023-02-03T10:17:25;5.10;99.90
4759;DHT22;2393;50.560;12.636;2023-02-03T10:19:58;5.10;99.90
4759;DHT22;2393;50.560;12.636;2023-02-03T10:22:29;5.10;99.90
4759;DHT22;2393;50.560;12.636;2023-02-03T10:25:02;5.10;99.90
4759;DHT22;2393;50.560;12.636;2023-02-03T10:27:32;5.10;99.90
4759;DHT22;2393;50.560;12.636;2023-02-03T10:30:10;5.20;99.90
4759;DHT22;2393;50.560;12.636;2023-02-03T10:32:43;5.20;99.90
4759;DHT22;2393;50.560;12.636;2023-02-03T10:35:12;5.20;99.90
4759;DHT22;2393;50.560;12.636;2023-02-03T10:37:44;5.20;99.90
4759;DHT22;2393;50.560;12.636;2023-02-03T10:40:14;5.20;99.90
4759;DHT22;2393;50.560;12.636;2023-02-03T10:42:43;5.20;99.90
4759;DHT22;2393;50.560;12.636;2023-02-03T10:45:30;5.20;99.90
4759;DHT22;2393;50.560;12.636;2023-02-03T10:47:59;5.20;99.90
4759;DHT22;2393;50.560;12.636;2023-02-03T10:50:27;5.20;99.90
4759;DHT22;2393;50.560;12.636;2023-02-03T10:53:19;5.20;99.90
4759;DHT22;2393;50.560;12.636;2023-02-03T10:55:50;5.20;99.90
4759;DHT22;2393;50.560;12.636;2023-02-03T10:58:24;5.20;99.90
4759;DHT22;2393;50.560;12.636;2023-02-03T11:00:56;5.20;99.90
4759;DHT22;2393;50.560;12.636;2023-02-03T11:03:27;5.10;99.90
4759;DHT22;2393;50.560;12.636;2023-02-03T11:06:08;5.10;99.90
4759;DHT22;2393;50.560;12.636;2023-02-03T11:08:38;5.10;99.90
4759;DHT22;2393;50.560;12.636;2023-02-03T11:11:07;5.10;99.90
4759;DHT22;2393;50.560;12.636;2023-02-03T11:13:36;5.00;99.90
4759;DHT22;2393;50.560;12.636;2023-02-03T11:16:10;5.00;99.90
4759;DHT22;2393;50.560;12.636;2023-02-03T11:18:53;5.00;99.90
4759;DHT22;2393;50.560;12.636;2023-02-03T11:21:27;5.00;99.90
4759;DHT22;2393;50.560;12.636;2023-02-03T11:24:00;5.10;99.90
4759;DHT22;2393;50.560;12.636;2023-02-03T11:26:32;5.10;99.90
4759;DHT22;2393;50.560;12.636;2023-02-03T11:29:03;5.10;99.90
4759;DHT22;2393;50.560;12.636;2023-02-03T11:31:34;5.10;99.90
4759;DHT22;2393;50.560;12.636;2023-02-03T11:34:05;5.00;99.90
4759;DHT22;2393;50.560;12.636;2023-02-03T11:36:35;5.00;99.90
4759;DHT22;2393;50.560;12.636;2023-02-03T11:39:16;5.00;99.90
4759;DHT22;2393;50.560;12.636;2023-02-03T11:41:46;5.00;99.90
4759;DHT22;2393;50.560;12.636;2023-02-03T11:44:22;5.00;99.90
4759;DHT22;2393;50.560;12.636;2023-02-03T11:46:56;4.90;99.90
4759;DHT22;2393;50.560;12.636;2023-02-03T11:50:06;5.00;99.90
4759;DHT22;2393;50.560;12.636;2023-02-03T11:52:49;5.00;99.90
4759;DHT22;2393;50.560;12.636;2023-02-03T11:55:49;5.00;99.90
4759;DHT22;2393;50.560;12.636;2023-02-03T11:58:47;5.00;99.90
4759;DHT22;2393;50.560;12.636;2023-02-03T12:01:26;5.00;99.90
4759;DHT22;2393;50.560;12.636;2023-02-03T12:04:14;5.00;99.90
4759;DHT22;2393;50.560;12.636;2023-02-03T12:06:59;5.00;99.90
4759;DHT22;2393;50.560;12.636;2023-02-03T12:09:42;5.00;99.90
4759;DHT22;2393;50.560;12.636;2023-02-03T12:12:25;5.00;99.90
4759;DHT22;2393;50.560;12.636;2023-02-03T12:15:11;5.00;99.90
4759;DHT22;2393;50.560;12.636;2023-02-03T12:17:55;5.00;99.90
4759;DHT22;2393;50.560;12.636;2023-02-03T12:20:45;5.00;99.90
4759;DHT22;2393;50.560;12.636;2023-02-03T12:23:33;5.00;99.90
4759;DHT22;2393;50.560;12.636;2023-02-03T12:26:16;5.00;99.90
4759;DHT22;2393;50.560;12.636;2023-02-03T12:29:00;4.90;99.90
4759;DHT22;2393;50.560;12.636;2023-02-03T12:31:36;4.90;99.90
4759;DHT22;2393;50.560;12.636;2023-02-03T12:34:12;4.90;99.90
4759;DHT22;2393;50.560;12.636;2023-02-03T12:36:47;4.90;99.90
4759;DHT22;2393;50.560;12.636;2023-02-03T12:39:20;4.90;99.90
4759;DHT22;2393;50.560;12.636;2023-02-03T12:41:59;4.90;99.90
4759;DHT22;2393;50.560;12.636;2023-02-03T12:44:39;4.90;99.90
4759;DHT22;2393;50.560;12.636;2023-02-03T12:47:15;4.90;99.90
4759;DHT22;2393;50.560;12.636;2023-02-03T12:49:47;4.90;99.90
4759;DHT22;2393;50.560;12.636;2023-02-03T12:52:26;4.90;99.90
4759;DHT22;2393;50.560;12.636;2023-02-03T12:55:07;5.00;99.90
4759;DHT22;2393;50.560;12.636;2023-02-03T12:57:45;4.90;99.90
4759;DHT22;2393;50.560;12.636;2023-02-03T13:00:22;5.00;99.90
4759;DHT22;2393;50.560;12.636;2023-02-03T13:03:10;5.00;99.90
4759;DHT22;2393;50.560;12.636;2023-02-03T13:05:48;5.00;99.90
4759;DHT22;2393;50.560;12.636;2023-02-03T13:08:22;5.00;99.90
4759;DHT22;2393;50.560;12.636;2023-02-03T13:10:56;5.10;99.90
4759;DHT22;2393;50.560;12.636;2023-02-03T13:13:32;5.10;99.90
4759;DHT22;2393;50.560;12.636;2023-02-03T13:16:05;5.10;99.90
4759;DHT22;2393;50.560;12.636;2023-02-03T13:18:37;5.10;99.90
4759;DHT22;2393;50.560;12.636;2023-02-03T13:21:09;5.10;99.90
4759;DHT22;2393;50.560;12.636;2023-02-03T13:23:41;5.10;99.90
4759;DHT22;2393;50.560;12.636;2023-02-03T13:26:48;5.10;99.90
4759;DHT22;2393;50.560;12.636;2023-02-03T13:29:42;5.10;99.90
4759;DHT22;2393;50.560;12.636;2023-02-03T13:32:25;5.10;99.90
4759;DHT22;2393;50.560;12.636;2023-02-03T13:35:14;5.20;99.90
4759;DHT22;2393;50.560;12.636;2023-02-03T13:38:01;5.20;99.90
4759;DHT22;2393;50.560;12.636;2023-02-03T13:40:42;5.20;99.90
4759;DHT22;2393;50.560;12.636;2023-02-03T13:43:15;5.20;99.90
4759;DHT22;2393;50.560;12.636;2023-02-03T13:46:04;5.20;99.90
4759;DHT22;2393;50.560;12.636;2023-02-03T13:48:35;5.20;99.90
4759;DHT22;2393;50.560;12.636;2023-02-03T13:51:06;5.20;99.90
4759;DHT22;2393;50.560;12.636;2023-02-03T13:53:44;5.20;99.90
4759;DHT22;2393;50.560;12.636;2023-02-03T13:56:20;5.20;99.90
4759;DHT22;2393;50.560;12.636;2023-02-03T13:59:00;5.30;99.90
4759;DHT22;2393;50.560;12.636;2023-02-03T14:01:32;5.30;99.90
4759;DHT22;2393;50.560;12.636;2023-02-03T14:04:01;5.30;99.90
4759;DHT22;2393;50.560;12.636;2023-02-03T14:07:25;5.30;99.90
4759;DHT22;2393;50.560;12.636;2023-02-03T14:10:14;5.30;99.90
4759;DHT22;2393;50.560;12.636;2023-02-03T14:13:17;5.40;99.90
4759;DHT22;2393;50.560;12.636;2023-02-03T14:16:13;5.40;99.90
4759;DHT22;2393;50.560;12.636;2023-02-03T14:18:45;5.40;99.90
4759;DHT22;2393;50.560;12.636;2023-02-03T14:21:18;5.30;99.90
4759;DHT22;2393;50.560;12.636;2023-02-03T14:23:58;5.30;99.90
4759;DHT22;2393;50.560;12.636;2023-02-03T14:26:33;5.30;99.90
4759;DHT22;2393;50.560;12.636;2023-02-03T14:29:06;5.10;99.90
4759;DHT22;2393;50.560;12.636;2023-02-03T14:31:56;5.10;99.90
4759;DHT22;2393;50.560;12.636;2023-02-03T14:34:33;5.20;99.90
4759;DHT22;2393;50.560;12.636;2023-02-03T14:37:11;5.10;99.90
4759;DHT22;2393;50.560;12.636;2023-02-03T14:40:15;5.20;99.90
4759;DHT22;2393;50.560;12.636;2023-02-03T14:43:02;5.20;99.90
4759;DHT22;2393;50.560;12.636;2023-02-03T14:46:03;5.20;99.90
4759;DHT22;2393;50.560;12.636;2023-02-03T14:48:48;5.20;99.90
4759;DHT22;2393;50.560;12.636;2023-02-03T14:51:30;5.20;99.90
4759;DHT22;2393;50.560;12.636;2023-02-03T14:54:15;5.20;99.90
4759;DHT22;2393;50.560;12.636;2023-02-03T14:56:47;5.20;99.90
4759;DHT22;2393;50.560;12.636;2023-02-03T14:59:38;5.20;99.90
4759;DHT22;2393;50.560;12.636;2023-02-03T15:02:16;5.20;99.90
4759;DHT22;2393;50.560;12.636;2023-02-03T15:04:46;5.30;99.90
4759;DHT22;2393;50.560;12.636;2023-02-03T15:07:34;5.20;99.90
4759;DHT22;2393;50.560;12.636;2023-02-03T15:10:02;5.20;99.90
4759;DHT22;2393;50.560;12.636;2023-02-03T15:12:34;5.20;99.90
4759;DHT22;2393;50.560;12.636;2023-02-03T15:15:21;5.20;99.90
4759;DHT22;2393;50.560;12.636;2023-02-03T15:17:52;5.20;99.90
4759;DHT22;2393;50.560;12.636;2023-02-03T15:20:26;5.30;99.90
4759;DHT22;2393;50.560;12.636;2023-02-03T15:22:56;5.20;99.90
4759;DHT22;2393;50.560;12.636;2023-02-03T15:25:24;5.20;99.90
4759;DHT22;2393;50.560;12.636;2023-02-03T15:27:54;5.10;99.90
4759;DHT22;2393;50.560;12.636;2023-02-03T15:30:37;5.10;99.90
4759;DHT22;2393;50.560;12.636;2023-02-03T15:33:12;5.10;99.90
4759;DHT22;2393;50.560;12.636;2023-02-03T15:35:44;5.20;99.90
4759;DHT22;2393;50.560;12.636;2023-02-03T15:38:14;5.10;99.90
4759;DHT22;2393;50.560;12.636;2023-02-03T15:40:47;5.10;99.90
4759;DHT22;2393;50.560;12.636;2023-02-03T15:43:19;5.10;99.90
4759;DHT22;2393;50.560;12.636;2023-02-03T15:45:56;5.10;99.90
4759;DHT22;2393;50.560;12.636;2023-02-03T15:48:30;5.10;99.90
4759;DHT22;2393;50.560;12.636;2023-02-03T15:51:04;5.10;99.90
4759;DHT22;2393;50.560;12.636;2023-02-03T15:53:35;5.10;99.90
4759;DHT22;2393;50.560;12.636;2023-02-03T15:56:19;5.10;99.90
4759;DHT22;2393;50.560;12.636;2023-02-03T15:58:48;5.00;99.90
4759;DHT22;2393;50.560;12.636;2023-02-03T16:01:20;5.00;99.90
4759;DHT22;2393;50.560;12.636;2023-02-03T16:03:52;5.00;99.90
4759;DHT22;2393;50.560;12.636;2023-02-03T16:06:23;5.00;99.90
4759;DHT22;2393;50.560;12.636;2023-02-03T16:08:54;5.00;99.90
4759;DHT22;2393;50.560;12.636;2023-02-03T16:11:28;5.00;99.90
4759;DHT22;2393;50.560;12.636;2023-02-03T16:13:57;5.00;99.90
4759;DHT22;2393;50.560;12.636;2023-02-03T16:16:29;5.00;99.90
4759;DHT22;2393;50.560;12.636;2023-02-03T16:19:01;5.00;99.90
4759;DHT22;2393;50.560;12.636;2023-02-03T16:21:33;5.00;99.90
4759;DHT22;2393;50.560;12.636;2023-02-03T16:24:03;5.00;99.90
4759;DHT22;2393;50.560;12.636;2023-02-03T16:26:32;5.00;99.90
4759;DHT22;2393;50.560;12.636;2023-02-03T16:29:12;5.00;99.90
4759;DHT22;2393;50.560;12.636;2023-02-03T16:31:58;5.00;99.90
4759;DHT22;2393;50.560;12.636;2023-02-03T16:34:45;5.00;99.90
4759;DHT22;2393;50.560;12.636;2023-02-03T16:37:33;5.00;99.90
4759;DHT22;2393;50.560;12.636;2023-02-03T16:40:20;5.00;99.90
4759;DHT22;2393;50.560;12.636;2023-02-03T16:43:11;5.00;99.90
4759;DHT22;2393;50.560;12.636;2023-02-03T16:45:57;5.00;99.90
4759;DHT22;2393;50.560;12.636;2023-02-03T16:48:44;5.00;99.90